Sunderland, Maryland
Current Conditions -  °F | °C
As of 4:58 AM on Sunday 23 Nov 2014 (Local Time) from KADW Reporting Station
Clear Clear  
Wind Chill: 33°   Ceiling: Unl
Heat Index: 40°   Visibility: 10mi
Dew Point: 18°   Wind: 10mph
Humidity: 41%   Direction: 210°SSW
Pressure: 30.2"   Gusts: NA
Location:  38.67°N, 76.6°W
Report Text: KADW 230958Z AUTO 21009KT 10SM CLR 04/M08 A3020 RMK AO2 SLP235 T00421080 $
Loading
Personal Weather Stations






























Interactive Weather Map New forecast layout! Learn more

10-Day Weather Forecast

Advertisements
Track Severe Weather on mobile